Flight Track Log - Related Links

Times and Time Zones

All times are in EDT time to prevent confusion due to time zone crossing. See the SWA655 flight status page for this flight to view local times or setup timezone preferences in your user account.

Time Position Orientation Groundspeed Altitude Reporting Facility
EDT Latitude Longitude Course Direction KTS MPH feet Rate Location/Type
Thu 06:55:32 PM 33.9333 -118.5333 256° West 243 280 3,600  Level Southern California TRACON
Thu 06:56:38 PM 33.8906 -118.5664 213° Southwest 240 276 7,900 3,609 Climbing Los Angeles Center
Thu 06:57:40 PM 33.9033 -118.4900 79° East 253 291 11,300 2,903 Climbing Los Angeles Center
Thu 06:58:42 PM 33.9472 -118.4064 58° Northeast 292 336 13,900 2,544 Climbing Los Angeles Center
Thu 06:59:45 PM 34.0036 -118.3092 55° Northeast 345 397 16,600 2,592 Climbing Los Angeles Center
Thu 07:00:47 PM 34.0650 -118.2011 56° Northeast 383 441 19,300 2,516 Climbing Los Angeles Center
Thu 07:01:49 PM 34.1292 -118.0872 56° Northeast 404 465 21,800 2,855 Climbing Los Angeles Center
Thu 07:02:51 PM 34.2094 -117.9456 56° Northeast 420 483 25,200 2,256 Climbing Los Angeles Center
Thu 07:03:54 PM 34.2786 -117.8222 56° Northeast 435 501 26,500 864 Climbing Los Angeles Center
Thu 07:04:56 PM 34.3517 -117.6900 56° Northeast 464 534 27,000 242 Climbing Los Angeles Center
Thu 07:05:58 PM 34.4275 -117.5528 56° Northeast 466 536 27,000  Level Los Angeles Center
Thu 07:07:00 PM 34.4997 -117.4225 56° Northeast 467 537 27,000  Level Los Angeles Center
Thu 07:08:02 PM 34.5711 -117.2917 56° Northeast 468 539 27,000  Level Los Angeles Center
Thu 07:09:04 PM 34.6442 -117.1581 56° Northeast 477 549 27,000  Level Los Angeles Center
Thu 07:10:06 PM 34.7325 -116.9967 56° Northeast 480 552 27,000  Level Los Angeles Center
Thu 07:11:08 PM 34.8056 -116.8628 56° Northeast 480 552 27,000  Level Los Angeles Center
Thu 07:12:10 PM 34.8783 -116.7281 57° Northeast 479 551 27,000  Level Los Angeles Center
Thu 07:13:13 PM 34.9503 -116.5947 57° Northeast 476 548 27,000 -384 Level Los Angeles Center
Thu 07:14:15 PM 35.0394 -116.4781 47° Northeast 478 550 26,200 -1,452 Descending Los Angeles Center
Thu 07:15:17 PM 35.1456 -116.3453 46° Northeast 460 529 24,000 -1,065 Descending Los Angeles Center
Thu 07:16:19 PM 35.2369 -116.2333 45° Northeast 465 535 24,000 -677 Level Los Angeles Center
Thu 07:17:21 PM 35.3244 -116.1219 46° Northeast 457 526 22,600 -2,081 Descending Los Angeles Center
Thu 07:18:23 PM 35.4072 -116.0158 46° Northeast 436 502 19,700 -2,806 Descending Los Angeles Center
Thu 07:19:25 PM 35.4867 -115.9150 46° Northeast 419 482 16,800 -3,000 Descending Los Angeles Center
Thu 07:19:51 PM 35.5303 -115.8614 45° Northeast 410 472 15,300 -2,710 Descending Los Angeles Center
Thu 07:20:27 PM 35.5756 -115.8033 46° Northeast 395 455 14,000 -1,304 Descending Los Angeles Center
Thu 07:21:23 PM 35.6369 -115.7244 46° Northeast 350 403 13,300 -513 Descending Los Angeles Center
Thu 07:22:24 PM 35.6986 -115.6492 45° Northeast 315 362 13,000 -148 Descending Los Angeles Center
Thu 07:23:25 PM 35.7544 -115.5783 46° Northeast 258 297 13,000  Level Los Angeles Center
Thu 07:24:26 PM 35.8242 -115.5717 North 246 283 13,000 -234 Level Los Angeles Center
Thu 07:25:33 PM 35.9011 -115.5681 North 248 285 12,500 -492 Descending Los Angeles Center
Thu 07:26:28 PM 35.9658 -115.5575 North 247 284 12,000 -574 Descending Los Angeles Center
Thu 07:27:28 PM 36.0061 -115.4942 52° Northeast 265 305 11,400 -496 Descending Los Angeles Center
Thu 07:28:29 PM 36.0239 -115.4061 76° East 260 299 11,000 -316 Descending Los Angeles Center
Thu 07:28:44 PM 36.0272 -115.3961 68° East 262 302 11,000 -590 Level Los Angeles Center
Thu 07:29:30 PM 36.0264 -115.3175 91° East 259 298 10,400 -677 Descending Los Angeles Center
Thu 07:29:46 PM 36.0272 -115.3086 83° East 258 297 10,300 -1,200 Descending Los Angeles Center
Thu 07:30:25 PM 36.0197 -115.2372 97° East 257 296 9,300 -1,258 Descending Los Angeles Center
Thu 07:30:48 PM 36.0183 -115.2031 93° East 258 297 9,000 -537 Descending Los Angeles Center
Thu 07:31:32 PM 36.0139 -115.1408 95° East 249 287 8,700 -571 Descending Los Angeles Center
Thu 07:31:51 PM 36.0133 -115.1186 92° East 252 290 8,400 -764 Descending Los Angeles Center
Thu 07:32:27 PM 36.0078 -115.0631 97° East 248 285 8,000 -387 Descending Los Angeles Center
Thu 07:32:53 PM 36.0072 -115.0358 91° East 247 284 8,000 -740 Level Los Angeles Center
Thu 07:33:40 PM 36.0047 -114.9792 93° East 201 231 7,100 -968 Descending Los Angeles Center
Thu 07:33:55 PM 36.0058 -114.9678 83° East 222 255 7,000 -1,475 Descending Los Angeles Center
Thu 07:34:41 PM 36.0519 -114.9686 359° North 191 220 5,600 -1,548 Descending Los Angeles Center
Thu 07:34:57 PM 36.0583 -114.9678 North 208 239 5,400 -1,377 Descending Los Angeles Center
Thu 07:35:42 PM 36.0736 -115.0175 291° West 193 222 4,200 -1,452 Descending Los Angeles Center
Thu 07:35:59 PM 36.0725 -115.0314 264° West 189 217 3,900 -1,180 Descending Los Angeles Center
Thu 07:36:43 PM 36.0728 -115.0736 270° West 162 186 3,000 -1,161 Descending Los Angeles Center
Thu 07:37:01 PM 36.0747 -115.0886 279° West 176 203 2,700 -750 Descending Los Angeles Center
Thu 07:38:03 PM 36.0739 -115.1386 269° West 161 185 2,000 -677 Descending Los Angeles Center
Thu 07:40:00 PM 36.0667 -115.1500 270° West  Level FlightAware Approximate

Login

Don't have an account? Register now (free) for customized features, flight alerts, and more!